Time;durP1;ratioP1;P1;durP2;ratioP2;P2;SDS_P1;SDS_P2;PMS_P1;PMS_P2;Temp;Humidity;BMP_temperature;BMP_pressure;BME280_temperature;BME280_humidity;BME280_pressure;Samples;Min_cycle;Max_cycle;Signal;HPM_P1;HPM_P2
2023/10/19 00:00:48;;;;;;;6.10;4.67;;;;;;;8.24;56.83;99829.63;5016608;27;98087;-75
2023/10/19 00:03:15;;;;;;;5.20;4.57;;;;;;;8.24;56.77;99826.84;5015906;27;99193;-76
2023/10/19 00:05:41;;;;;;;5.50;5.00;;;;;;;8.22;56.99;99829.41;5016913;27;97137;-76
2023/10/19 00:10:39;;;;;;;6.37;4.63;;;;;;;8.20;57.03;99809.88;5018657;27;97826;-77
2023/10/19 00:13:05;;;;;;;6.80;4.90;;;;;;;8.20;56.89;99820.16;5015506;27;97539;-76
2023/10/19 00:15:34;;;;;;;7.80;5.20;;;;;;;8.18;57.03;99825.44;5016267;27;97690;-76
2023/10/19 00:18:06;;;;;;;5.47;4.83;;;;;;;8.18;57.22;99801.41;5015532;27;96970;-76
2023/10/19 00:23:06;;;;;;;5.17;4.57;;;;;;;8.11;57.39;99812.22;5017567;27;97224;-75
2023/10/19 00:25:34;;;;;;;6.37;5.37;;;;;;;8.04;57.67;99805.28;5016148;27;97133;-76
2023/10/19 00:28:03;;;;;;;7.80;5.10;;;;;;;8.05;57.75;99809.53;5017027;27;97092;-76
2023/10/19 00:30:35;;;;;;;5.10;4.60;;;;;;;8.03;57.98;99806.53;5016220;27;97776;-76
2023/10/19 00:33:03;;;;;;;5.73;5.13;;;;;;;8.02;58.05;99805.06;5017264;27;99401;-77
2023/10/19 00:35:42;;;;;;;7.47;5.47;;;;;;;8.00;58.21;99804.84;5016830;27;97669;-75
2023/10/19 00:40:59;;;;;;;6.03;5.43;;;;;;;7.96;58.40;99804.38;5018532;27;97428;-75
2023/10/19 00:43:36;;;;;;;5.73;5.20;;;;;;;7.95;58.78;99804.88;5018994;27;97958;-76
2023/10/19 00:46:03;;;;;;;6.03;4.80;;;;;;;7.91;58.38;99785.91;5018144;27;97370;-76
2023/10/19 00:48:29;;;;;;;6.10;5.50;;;;;;;7.91;58.52;99796.19;5015829;27;97491;-75
2023/10/19 00:51:06;;;;;;;5.70;5.20;;;;;;;7.87;58.78;99790.22;5033560;27;97204;-75
2023/10/19 00:53:36;;;;;;;6.43;4.80;;;;;;;7.85;58.79;99776.97;5016209;27;99099;-75
2023/10/19 00:56:05;;;;;;;7.93;6.20;;;;;;;7.87;58.93;99788.22;5012847;27;100691;-76
2023/10/19 00:58:35;;;;;;;7.53;6.10;;;;;;;7.81;59.04;99785.50;5019751;27;97318;-75
2023/10/19 01:01:05;;;;;;;7.83;6.23;;;;;;;7.80;59.12;99778.53;5022254;27;97063;-76
2023/10/19 01:03:37;;;;;;;6.63;5.33;;;;;;;7.81;59.11;99785.50;5020321;27;96936;-76
2023/10/19 01:06:09;;;;;;;6.30;5.70;;;;;;;7.78;59.25;99772.78;5020945;27;97697;-76
2023/10/19 01:08:41;;;;;;;8.17;6.53;;;;;;;7.74;59.32;99760.59;5019218;27;97512;-75
2023/10/19 01:11:11;;;;;;;6.80;5.10;;;;;;;7.76;59.35;99771.81;5020686;27;97057;-75
2023/10/19 01:13:38;;;;;;;6.37;5.77;;;;;;;7.75;59.37;99756.56;5020196;27;100486;-76
2023/10/19 01:16:04;;;;;;;7.10;5.77;;;;;;;7.75;59.57;99762.06;5017400;27;100430;-75
2023/10/19 01:18:32;;;;;;;6.70;6.03;;;;;;;7.74;59.61;99763.34;5017707;27;97258;-75
2023/10/19 01:21:02;;;;;;;8.87;6.63;;;;;;;7.73;59.49;99761.84;5019158;27;96942;-76
2023/10/19 01:23:27;;;;;;;8.30;6.20;;;;;;;7.70;59.54;99751.88;5022005;27;96757;-76
2023/10/19 01:28:42;;;;;;;7.23;6.50;;;;;;;7.66;59.87;99751.44;5021957;27;98309;-76
2023/10/19 01:34:05;;;;;;;9.80;5.97;;;;;;;7.63;59.89;99738.69;5018660;27;97428;-77
2023/10/19 01:36:37;;;;;;;7.53;6.50;;;;;;;7.58;60.04;99743.00;5021757;27;96855;-75
2023/10/19 01:39:09;;;;;;;9.30;6.90;;;;;;;7.56;60.23;99731.00;5020077;27;97033;-76
2023/10/19 01:41:34;;;;;;;8.23;6.57;;;;;;;7.57;60.22;99732.50;5024035;27;97513;-76
2023/10/19 01:44:04;;;;;;;6.60;5.97;;;;;;;7.56;60.32;99717.25;5018944;27;100343;-76
2023/10/19 01:46:33;;;;;;;7.90;7.10;;;;;;;7.57;60.17;99718.75;5018426;27;100552;-77
2023/10/19 01:49:01;;;;;;;7.10;6.40;;;;;;;7.57;60.43;99710.50;5020689;27;96972;-75
2023/10/19 01:51:28;;;;;;;8.20;6.63;;;;;;;7.52;60.45;99703.03;5018830;27;97660;-76
2023/10/19 01:53:57;;;;;;;7.63;6.77;;;;;;;7.56;60.48;99684.22;5018428;27;98501;-76
2023/10/19 01:56:23;;;;;;;10.73;6.90;;;;;;;7.54;60.46;99690.25;5019900;27;96702;-76
2023/10/19 01:58:51;;;;;;;10.10;7.57;;;;;;;7.51;60.60;99682.25;5018601;27;98482;-76
2023/10/19 02:01:28;;;;;;;8.13;7.03;;;;;;;7.49;60.57;99677.28;5031296;27;97322;-77
2023/10/19 02:04:05;;;;;;;9.27;6.83;;;;;;;7.43;60.71;99667.59;5020550;27;98181;-77
2023/10/19 02:06:40;;;;;;;8.97;7.83;;;;;;;7.42;60.66;99660.63;5023021;27;100365;-77
2023/10/19 02:09:17;;;;;;;9.47;7.63;;;;;;;7.38;60.88;99651.91;5020191;27;97459;-77
2023/10/19 02:11:46;;;;;;;9.70;7.93;;;;;;;7.34;60.88;99643.19;5019091;27;97102;-77
2023/10/19 02:14:15;;;;;;;10.07;7.63;;;;;;;7.34;60.83;99634.94;5017702;27;99668;-76
2023/10/19 02:16:46;;;;;;;10.37;7.37;;;;;;;7.32;61.09;99640.97;5034240;27;99324;-77
2023/10/19 02:19:13;;;;;;;8.57;7.70;;;;;;;7.28;61.18;99626.03;5019668;27;97023;-77
2023/10/19 02:21:42;;;;;;;8.60;7.50;;;;;;;7.26;61.16;99631.28;5018687;27;97702;-77
2023/10/19 02:24:09;;;;;;;11.03;8.07;;;;;;;7.24;61.25;99620.81;5018547;27;96954;-76
2023/10/19 02:26:35;;;;;;;9.53;7.97;;;;;;;7.22;61.23;99609.59;5021436;27;97538;-76
2023/10/19 02:29:04;;;;;;;10.83;7.90;;;;;;;7.18;61.50;99617.38;5018631;27;97189;-77
2023/10/19 02:31:33;;;;;;;10.43;8.60;;;;;;;7.16;61.78;99610.91;5017539;27;97117;-78
2023/10/19 02:33:59;;;;;;;10.57;8.67;;;;;;;7.18;61.66;99608.41;5018407;27;98287;-77
2023/10/19 02:36:31;;;;;;;9.53;7.70;;;;;;;7.14;61.91;99605.19;5020951;27;99978;-76
2023/10/19 02:38:58;;;;;;;9.83;8.73;;;;;;;7.09;61.81;99600.50;5021488;27;97067;-77
2023/10/19 02:41:26;;;;;;;9.93;8.93;;;;;;;7.09;61.98;99604.00;5036472;27;97048;-77
2023/10/19 02:44:01;;;;;;;9.53;8.00;;;;;;;7.11;61.85;99600.72;5021481;27;100349;-77
2023/10/19 02:46:34;;;;;;;8.73;7.80;;;;;;;7.12;61.97;99593.94;5019820;27;100743;-77
2023/10/19 02:49:03;;;;;;;10.30;7.73;;;;;;;7.17;62.14;99588.38;5019368;27;97279;-77
2023/10/19 02:51:30;;;;;;;12.53;8.70;;;;;;;7.13;62.06;99585.19;5022809;27;97355;-78
2023/10/19 02:53:56;;;;;;;11.10;8.60;;;;;;;7.09;62.06;99584.00;5021015;27;97112;-78
2023/10/19 02:56:23;;;;;;;11.60;8.87;;;;;;;7.12;62.18;99599.44;5020909;27;98902;-77
2023/10/19 02:58:49;;;;;;;11.00;9.40;;;;;;;7.07;62.33;99581.78;5018771;27;97707;-77
2023/10/19 03:01:24;;;;;;;13.80;9.70;;;;;;;7.11;62.43;99586.97;5019307;27;97829;-76
2023/10/19 03:03:51;;;;;;;9.60;8.60;;;;;;;7.13;62.52;99593.44;5018703;27;98157;-77
2023/10/19 03:06:21;;;;;;;11.90;8.87;;;;;;;7.18;62.31;99594.63;5019030;27;100340;-77
2023/10/19 03:08:47;;;;;;;10.67;9.07;;;;;;;7.19;62.24;99590.63;5019777;27;97080;-77
2023/10/19 03:11:14;;;;;;;11.30;8.97;;;;;;;7.20;62.23;99583.88;5020176;27;97455;-77
2023/10/19 03:13:41;;;;;;;9.93;8.80;;;;;;;7.21;62.21;99574.34;5021395;27;97321;-77
2023/10/19 03:16:07;;;;;;;9.97;8.97;;;;;;;7.19;62.21;99571.34;5018520;27;99893;-77
2023/10/19 03:18:34;;;;;;;11.30;9.03;;;;;;;7.21;62.29;99574.34;5022193;27;96809;-77
2023/10/19 03:21:01;;;;;;;12.30;9.10;;;;;;;7.24;62.20;99578.81;5020906;27;97071;-77
2023/10/19 03:23:28;;;;;;;10.70;9.17;;;;;;;7.22;62.31;99582.09;5023968;27;97484;-77
2023/10/19 03:26:17;;;;;;;10.03;8.87;;;;;;;7.18;62.66;99581.63;5021672;27;97612;-77
2023/10/19 03:28:40;;;;;;;10.53;7.97;;;;;;;7.20;62.46;99583.88;5019274;27;97088;-77
2023/10/19 03:31:07;;;;;;;13.07;9.47;;;;;;;7.22;62.31;99586.84;5021943;27;96629;-78
2023/10/19 03:33:33;;;;;;;11.17;9.23;;;;;;;7.17;62.50;99558.13;5021647;27;97263;-77
2023/10/19 03:36:01;;;;;;;10.73;9.20;;;;;;;7.17;62.55;99566.38;5019387;27;100250;-78
2023/10/19 03:38:27;;;;;;;11.53;9.50;;;;;;;7.12;62.61;99555.44;5021082;27;97678;-77
2023/10/19 03:40:59;;;;;;;10.90;7.90;;;;;;;7.15;62.65;99562.66;5015223;27;97463;-77
2023/10/19 03:43:27;;;;;;;13.17;10.13;;;;;;;7.16;62.66;99570.38;5031147;27;100470;-77
2023/10/19 03:45:53;;;;;;;13.00;9.63;;;;;;;7.15;62.75;99566.16;5019872;27;97170;-77
2023/10/19 03:48:30;;;;;;;12.23;9.47;;;;;;;7.13;62.84;99554.94;5016555;27;97468;-76
2023/10/19 03:50:56;;;;;;;10.33;9.17;;;;;;;7.17;62.75;99551.88;5019245;28;97155;-77
2023/10/19 03:53:23;;;;;;;13.20;10.20;;;;;;;7.16;62.89;99540.13;5007988;28;97369;-76
2023/10/19 03:55:50;;;;;;;12.90;10.10;;;;;;;7.19;62.65;99521.84;5016519;27;99421;-77
2023/10/19 03:58:16;;;;;;;13.63;10.60;;;;;;;7.15;62.77;99535.16;5028431;27;97636;-77
2023/10/19 04:00:41;;;;;;;13.57;10.50;;;;;;;7.11;62.83;99520.97;5015174;28;96999;-76
2023/10/19 04:03:07;;;;;;;12.13;10.20;;;;;;;7.12;62.87;99534.19;5014639;28;97565;-77
2023/10/19 04:05:37;;;;;;;12.23;9.50;;;;;;;7.11;62.99;99523.72;5013424;27;97225;-77
2023/10/19 04:08:12;;;;;;;11.33;9.83;;;;;;;7.05;62.75;99508.03;5016432;28;97676;-76
2023/10/19 04:10:38;;;;;;;13.10;8.73;;;;;;;7.03;63.13;99523.53;5017009;28;97295;-76
2023/10/19 04:13:09;;;;;;;15.43;10.20;;;;;;;7.07;63.12;99521.28;5011989;27;100910;-76
2023/10/19 04:15:36;;;;;;;11.17;8.83;;;;;;;7.10;63.08;99506.47;5018132;27;97720;-77
2023/10/19 04:18:08;;;;;;;10.43;9.43;;;;;;;7.03;63.07;99513.31;5017460;28;97068;-77
2023/10/19 04:20:54;;;;;;;12.67;8.67;;;;;;;7.06;63.11;99511.53;5020699;28;96613;-77
2023/10/19 04:23:21;;;;;;;12.13;9.77;;;;;;;7.04;63.13;99509.31;5014240;28;99618;-76
2023/10/19 04:25:47;;;;;;;12.03;9.30;;;;;;;7.04;63.15;99505.81;5018091;27;97119;-77
2023/10/19 04:28:30;;;;;;;10.57;8.70;;;;;;;7.04;63.14;99501.06;5016184;27;97557;-77
2023/10/19 04:30:55;;;;;;;14.60;9.40;;;;;;;6.99;63.22;99503.84;5017050;28;97113;-77
2023/10/19 04:33:22;;;;;;;11.93;9.40;;;;;;;6.99;63.36;99490.84;5016809;28;100139;-78
2023/10/19 04:35:54;;;;;;;14.07;8.83;;;;;;;6.98;63.23;99497.59;5016412;28;100309;-77
2023/10/19 04:38:20;;;;;;;10.87;9.43;;;;;;;7.00;63.33;99483.34;5019113;28;97078;-77
2023/10/19 04:40:45;;;;;;;11.80;8.50;;;;;;;7.00;63.53;99491.59;5017274;28;96670;-77
2023/10/19 04:43:10;;;;;;;14.00;9.13;;;;;;;6.95;63.51;99475.91;5035061;27;100845;-78
2023/10/19 04:45:39;;;;;;;13.63;10.43;;;;;;;6.95;63.60;99475.91;5017753;28;109306;-77
2023/10/19 04:48:06;;;;;;;12.03;9.77;;;;;;;6.94;63.42;99507.44;5017439;28;97360;-77
2023/10/19 04:50:31;;;;;;;11.30;10.03;;;;;;;6.96;63.42;99480.16;5017113;28;97226;-77
2023/10/19 04:52:56;;;;;;;13.00;9.13;;;;;;;6.93;63.69;99483.94;5017907;27;96696;-78
2023/10/19 04:55:22;;;;;;;14.83;9.57;;;;;;;6.92;63.59;99477.69;5017313;28;108167;-77
2023/10/19 04:57:47;;;;;;;10.20;8.70;;;;;;;6.93;63.73;99472.94;5015929;28;100824;-77
2023/10/19 05:00:14;;;;;;;10.30;8.73;;;;;;;6.94;63.70;99477.91;5019302;28;97587;-78
2023/10/19 05:02:39;;;;;;;11.70;9.00;;;;;;;6.96;63.82;99474.66;5016144;28;100566;-77
2023/10/19 05:05:05;;;;;;;10.40;7.70;;;;;;;6.98;63.71;99475.59;5017449;28;97745;-77
2023/10/19 05:07:31;;;;;;;12.00;9.03;;;;;;;7.01;63.64;99458.09;5018927;28;97221;-77
2023/10/19 05:09:58;;;;;;;9.37;8.33;;;;;;;6.99;63.57;99474.34;5017686;28;96995;-78
2023/10/19 05:12:23;;;;;;;11.70;8.83;;;;;;;6.95;63.70;99468.41;5016278;28;100569;-77
2023/10/19 05:14:49;;;;;;;11.53;9.50;;;;;;;6.96;63.96;99461.63;5017732;28;98257;-77
2023/10/19 05:17:14;;;;;;;11.13;9.50;;;;;;;6.96;63.92;99450.63;5019234;27;96977;-77
2023/10/19 05:19:40;;;;;;;11.33;8.47;;;;;;;7.00;63.83;99450.38;5016889;27;96791;-77
2023/10/19 05:22:07;;;;;;;11.60;8.43;;;;;;;7.02;63.72;99443.09;5017754;28;98329;-77
2023/10/19 05:24:32;;;;;;;8.23;7.43;;;;;;;7.04;63.77;99448.06;5010835;27;100059;-77
2023/10/19 05:26:58;;;;;;;13.93;8.63;;;;;;;7.04;63.83;99445.31;5016695;28;97514;-78
2023/10/19 05:29:23;;;;;;;11.37;9.10;;;;;;;7.04;63.94;99450.81;5018120;28;97488;-77
2023/10/19 05:31:53;;;;;;;9.87;8.43;;;;;;;6.95;64.12;99449.19;5019004;27;100225;-77
2023/10/19 05:34:19;;;;;;;10.70;8.37;;;;;;;6.95;63.98;99475.91;5034034;27;100561;-78
2023/10/19 05:36:46;;;;;;;9.30;8.27;;;;;;;6.93;64.15;99465.44;5017658;28;97268;-77
2023/10/19 05:39:13;;;;;;;9.00;7.60;;;;;;;6.98;64.01;99464.63;5014743;28;97330;-76
2023/10/19 05:41:39;;;;;;;11.27;8.30;;;;;;;7.00;64.13;99477.84;5033819;27;101046;-76
2023/10/19 05:44:05;;;;;;;9.50;8.00;;;;;;;7.01;64.10;99465.59;5017492;28;97256;-77
2023/10/19 05:46:31;;;;;;;9.87;8.23;;;;;;;7.03;64.01;99474.06;5022888;28;96961;-76
2023/10/19 05:48:57;;;;;;;11.63;7.53;;;;;;;7.02;64.03;99459.59;5019910;27;97528;-77
2023/10/19 05:51:23;;;;;;;9.73;7.83;;;;;;;6.96;64.15;99456.13;5022294;28;98286;-78
2023/10/19 05:53:48;;;;;;;8.67;7.63;;;;;;;6.96;64.28;99467.13;5018640;27;98517;-77
2023/10/19 05:56:16;;;;;;;8.73;7.83;;;;;;;6.98;64.08;99448.13;5022750;28;97826;-77
2023/10/19 05:58:41;;;;;;;11.43;8.90;;;;;;;6.94;64.15;99461.41;5022905;27;96853;-77
2023/10/19 06:01:07;;;;;;;10.37;8.03;;;;;;;6.93;64.21;99456.44;5019181;27;97643;-77
2023/10/19 06:03:32;;;;;;;10.83;8.60;;;;;;;6.91;64.37;99470.72;5021296;27;97568;-77
2023/10/19 06:05:58;;;;;;;10.40;8.00;;;;;;;6.90;64.64;99474.72;5020734;27;97371;-76
2023/10/19 06:08:23;;;;;;;8.40;7.43;;;;;;;6.94;64.21;99464.16;5020339;27;97222;-76
2023/10/19 06:10:52;;;;;;;8.40;7.43;;;;;;;6.98;64.55;99477.63;5021244;28;97741;-77
2023/10/19 06:13:18;;;;;;;9.67;8.50;;;;;;;6.96;64.29;99464.38;5019204;27;97095;-77
2023/10/19 06:15:43;;;;;;;9.50;8.40;;;;;;;6.98;64.24;99463.88;5020981;27;96901;-77
2023/10/19 06:18:10;;;;;;;9.00;7.43;;;;;;;6.98;64.31;99478.34;5020732;27;96961;-77
2023/10/19 06:20:36;;;;;;;12.77;7.70;;;;;;;7.03;64.23;99476.81;5026371;27;99640;-77
2023/10/19 06:23:04;;;;;;;10.30;8.00;;;;;;;7.02;64.38;99464.34;5022102;28;96961;-76
2023/10/19 06:25:32;;;;;;;10.17;8.03;;;;;;;7.03;64.26;99458.31;5020144;28;97058;-76
2023/10/19 06:27:57;;;;;;;9.57;7.73;;;;;;;7.01;64.32;99465.59;5019364;28;97234;-77
2023/10/19 06:30:23;;;;;;;8.67;7.20;;;;;;;7.00;64.28;99467.59;5018574;28;98872;-76
2023/10/19 06:33:03;;;;;;;9.67;7.37;;;;;;;6.97;64.68;99465.88;5017642;27;99586;-76
2023/10/19 06:35:32;;;;;;;10.00;7.40;;;;;;;6.97;64.38;99468.63;5021294;27;97419;-77
2023/10/19 06:37:59;;;;;;;8.50;7.67;;;;;;;6.96;64.49;99478.13;5020227;28;97676;-77
2023/10/19 06:40:28;;;;;;;8.73;7.63;;;;;;;6.97;64.52;99467.88;5021421;27;97075;-76
2023/10/19 06:42:57;;;;;;;7.73;7.00;;;;;;;6.97;64.62;99482.38;5018130;28;97572;-76
2023/10/19 06:45:25;;;;;;;7.87;7.07;;;;;;;7.00;64.56;99470.34;5018964;28;96916;-76
2023/10/19 06:47:51;;;;;;;8.53;7.50;;;;;;;6.99;64.55;99474.34;5021878;27;97162;-76
2023/10/19 06:50:19;;;;;;;8.17;7.37;;;;;;;6.98;64.58;99467.34;5016288;28;97112;-76
2023/10/19 06:52:49;;;;;;;9.93;8.03;;;;;;;7.01;64.49;99469.09;5020425;28;97048;-77
2023/10/19 06:55:25;;;;;;;7.90;7.00;;;;;;;7.01;64.48;99474.59;5015663;27;97212;-76
2023/10/19 06:57:52;;;;;;;7.57;6.63;;;;;;;7.03;64.51;99468.56;5020311;28;96707;-77
2023/10/19 07:00:20;;;;;;;8.47;7.10;;;;;;;7.03;64.55;99474.06;5018554;27;98623;-77
2023/10/19 07:02:46;;;;;;;9.00;8.07;;;;;;;7.00;64.71;99469.59;5021200;27;97655;-77
2023/10/19 07:05:13;;;;;;;7.97;7.17;;;;;;;7.03;64.56;99463.81;5019967;28;96799;-77
2023/10/19 07:07:43;;;;;;;9.50;7.50;;;;;;;7.00;64.82;99462.13;5020131;28;97097;-76
2023/10/19 07:10:10;;;;;;;8.47;6.80;;;;;;;6.99;64.75;99454.38;5018228;28;97163;-77
2023/10/19 07:12:41;;;;;;;7.23;6.60;;;;;;;7.03;64.98;99471.31;5018320;28;100216;-76
2023/10/19 07:15:08;;;;;;;6.90;6.30;;;;;;;7.03;64.88;99452.81;5017916;28;96895;-77
2023/10/19 07:17:37;;;;;;;8.90;6.70;;;;;;;7.05;64.84;99446.78;5035243;27;97219;-77
2023/10/19 07:20:05;;;;;;;7.10;6.43;;;;;;;7.06;64.69;99470.28;5015868;27;100319;-76
2023/10/19 07:22:37;;;;;;;7.00;6.30;;;;;;;7.07;64.90;99451.78;5020652;28;98297;-76
2023/10/19 07:25:08;;;;;;;6.60;6.00;;;;;;;7.07;64.71;99458.75;5018219;28;97566;-76
2023/10/19 07:27:33;;;;;;;6.57;5.97;;;;;;;7.07;64.79;99454.53;5018236;28;97150;-77
2023/10/19 07:30:06;;;;;;;5.70;5.20;;;;;;;7.09;64.90;99463.00;5033104;27;100666;-76
2023/10/19 07:32:31;;;;;;;7.00;6.30;;;;;;;7.09;64.75;99450.00;5019866;28;98064;-76
2023/10/19 07:34:57;;;;;;;5.97;5.40;;;;;;;7.12;64.78;99459.94;5019072;28;98132;-76
2023/10/19 07:37:22;;;;;;;6.80;6.20;;;;;;;7.17;64.88;99455.63;5020044;27;97077;-77
2023/10/19 07:39:48;;;;;;;6.13;5.27;;;;;;;7.15;64.73;99455.41;5035387;27;100218;-76
2023/10/19 07:42:15;;;;;;;7.70;5.90;;;;;;;7.18;64.85;99459.88;5016119;28;99955;-76
2023/10/19 07:44:40;;;;;;;7.47;6.63;;;;;;;7.21;64.87;99456.81;5019090;28;97576;-76
2023/10/19 07:47:09;;;;;;;7.13;5.50;;;;;;;7.20;64.92;99451.84;5018550;27;97068;-77
2023/10/19 07:49:38;;;;;;;6.70;6.10;;;;;;;7.20;64.77;99447.09;5019691;27;97299;-77
2023/10/19 07:52:07;;;;;;;5.83;5.23;;;;;;;7.19;64.71;99464.09;5017381;28;97270;-77
2023/10/19 07:54:35;;;;;;;5.73;4.97;;;;;;;7.17;64.93;99452.88;5019532;28;97699;-76
2023/10/19 07:57:05;;;;;;;7.50;5.43;;;;;;;7.22;64.85;99454.81;5016234;27;97151;-77
2023/10/19 07:59:31;;;;;;;5.80;5.20;;;;;;;7.22;64.87;99455.56;5019096;28;97376;-77
2023/10/19 08:01:56;;;;;;;6.10;5.50;;;;;;;7.23;65.00;99456.28;5018072;28;99006;-77
2023/10/19 08:04:22;;;;;;;5.60;5.10;;;;;;;7.22;65.00;99454.81;5019113;27;97459;-77
2023/10/19 08:06:47;;;;;;;6.07;5.47;;;;;;;7.22;65.08;99460.31;5015852;28;98372;-77
2023/10/19 08:09:12;;;;;;;5.80;5.30;;;;;;;7.23;65.05;99445.28;5017768;28;98384;-77
2023/10/19 08:11:38;;;;;;;6.07;5.50;;;;;;;7.26;65.01;99453.25;5017904;27;97110;-77
2023/10/19 08:14:05;;;;;;;5.60;5.10;;;;;;;7.28;64.91;99467.22;5017416;28;97134;-76
2023/10/19 08:16:30;;;;;;;5.70;4.97;;;;;;;7.32;64.88;99458.66;5019400;28;97079;-77
2023/10/19 08:18:57;;;;;;;5.10;4.70;;;;;;;7.34;65.08;99461.63;5018042;27;100019;-76
2023/10/19 08:21:23;;;;;;;5.13;4.67;;;;;;;7.38;64.98;99448.31;5019173;28;99363;-77
2023/10/19 08:23:48;;;;;;;4.80;4.40;;;;;;;7.36;65.04;99451.59;5020624;27;97009;-77
2023/10/19 08:26:14;;;;;;;4.40;4.10;;;;;;;7.36;65.03;99454.34;5019660;28;97103;-77
2023/10/19 08:28:40;;;;;;;4.80;4.20;;;;;;;7.35;65.19;99452.88;5020155;28;97656;-78
2023/10/19 08:31:10;;;;;;;4.70;4.27;;;;;;;7.38;65.48;99487.56;5018066;28;97546;-76
2023/10/19 08:33:38;;;;;;;4.73;4.20;;;;;;;7.45;65.22;99455.97;5031295;27;97172;-76
2023/10/19 08:36:05;;;;;;;4.40;4.00;;;;;;;7.47;65.02;99459.66;5018511;27;97294;-76
2023/10/19 08:38:30;;;;;;;4.40;4.10;;;;;;;7.48;64.99;99444.66;5020252;27;99065;-76
2023/10/19 08:40:55;;;;;;;4.87;4.47;;;;;;;7.48;65.12;99441.91;5017218;28;97272;-76
2023/10/19 08:43:21;;;;;;;4.40;4.00;;;;;;;7.49;65.14;99448.13;5018496;28;97051;-77
2023/10/19 08:45:46;;;;;;;4.03;3.70;;;;;;;7.57;65.10;99440.78;5016989;27;97294;-77
2023/10/19 08:48:14;;;;;;;4.53;4.10;;;;;;;7.58;65.09;99437.47;5015828;28;97160;-76
2023/10/19 08:50:39;;;;;;;4.60;3.87;;;;;;;7.63;64.97;99435.91;5023061;27;97375;-76
2023/10/19 08:53:10;;;;;;;4.80;4.03;;;;;;;7.64;64.99;99438.13;5017440;27;97026;-75
2023/10/19 08:55:36;;;;;;;4.40;4.00;;;;;;;7.63;65.10;99436.66;5017952;27;99546;-77
2023/10/19 08:58:04;;;;;;;3.90;3.60;;;;;;;7.61;65.21;99435.69;5015732;28;100406;-75
2023/10/19 09:00:44;;;;;;;4.63;4.17;;;;;;;7.63;65.74;99441.41;5015431;28;97664;-77
2023/10/19 09:03:13;;;;;;;4.27;3.90;;;;;;;7.65;65.30;99447.88;5016147;28;96965;-76
2023/10/19 09:05:40;;;;;;;3.87;2.97;;;;;;;7.67;65.13;99436.34;5019346;27;96999;-77
2023/10/19 09:08:06;;;;;;;4.90;3.50;;;;;;;7.66;65.14;99440.38;5015620;28;98386;-76
2023/10/19 09:10:31;;;;;;;3.30;3.10;;;;;;;7.69;65.20;99448.31;5018386;27;100653;-76
2023/10/19 09:13:08;;;;;;;3.40;3.20;;;;;;;7.73;65.51;99431.47;5017923;27;97312;-77
2023/10/19 09:15:35;;;;;;;3.20;3.00;;;;;;;7.75;65.28;99437.94;5019100;28;97101;-77
2023/10/19 09:18:20;;;;;;;3.80;3.53;;;;;;;7.77;65.72;99437.41;5018549;28;96876;-75
2023/10/19 09:21:11;;;;;;;3.20;3.00;;;;;;;7.76;65.26;99435.94;5034143;27;98641;-76
2023/10/19 09:23:36;;;;;;;4.03;3.73;;;;;;;7.76;65.13;99436.69;5021586;28;97060;-77
2023/10/19 09:26:07;;;;;;;3.33;3.13;;;;;;;7.71;65.22;99432.00;5021027;27;97212;-77
2023/10/19 09:28:37;;;;;;;3.40;3.20;;;;;;;7.69;65.34;99445.56;5037249;27;99707;-77
2023/10/19 09:31:03;;;;;;;3.10;2.90;;;;;;;7.67;65.34;99439.09;5019957;28;97171;-76
2023/10/19 09:33:32;;;;;;;5.30;2.97;;;;;;;7.67;65.38;99444.59;5020656;27;97062;-77
2023/10/19 09:36:00;;;;;;;3.47;3.17;;;;;;;7.68;65.51;99438.56;5020697;28;97972;-77
2023/10/19 09:38:26;;;;;;;2.90;2.70;;;;;;;7.68;65.57;99435.09;5019206;28;99431;-77
2023/10/19 09:40:54;;;;;;;3.73;3.43;;;;;;;7.68;65.50;99451.59;5020877;27;100697;-77
2023/10/19 09:43:35;;;;;;;3.43;3.23;;;;;;;7.73;65.72;99443.25;5021594;28;97275;-77
2023/10/19 09:46:05;;;;;;;3.33;3.10;;;;;;;7.75;65.53;99437.94;5036309;27;97160;-78
2023/10/19 09:48:35;;;;;;;3.20;2.97;;;;;;;7.79;65.29;99434.91;5021018;28;97111;-77
2023/10/19 09:51:02;;;;;;;2.83;2.63;;;;;;;7.79;65.55;99443.16;5021451;28;97155;-77
2023/10/19 09:53:31;;;;;;;3.00;2.80;;;;;;;7.83;65.41;99435.34;5020596;28;98069;-77
2023/10/19 09:55:59;;;;;;;2.83;2.73;;;;;;;7.87;65.33;99444.03;5019089;28;97054;-77
2023/10/19 09:58:33;;;;;;;3.33;3.13;;;;;;;7.88;65.34;99445.47;5035255;27;98846;-78
2023/10/19 10:01:02;;;;;;;3.00;2.80;;;;;;;7.86;65.47;99450.78;5022872;27;100103;-77
2023/10/19 10:03:51;;;;;;;3.50;3.20;;;;;;;7.87;65.84;99446.03;5019514;27;97201;-77
2023/10/19 10:06:27;;;;;;;3.03;2.83;;;;;;;7.88;65.44;99437.22;5016660;28;97373;-78
2023/10/19 10:08:52;;;;;;;3.40;3.13;;;;;;;7.89;65.44;99446.97;5019119;28;99875;-77
2023/10/19 10:11:26;;;;;;;3.93;3.60;;;;;;;7.91;65.40;99427.91;5019644;28;98223;-76
2023/10/19 10:13:53;;;;;;;4.17;3.57;;;;;;;7.89;65.72;99435.97;5020305;28;97183;-77
2023/10/19 10:16:23;;;;;;;3.40;3.13;;;;;;;7.88;65.53;99431.72;5020305;28;97289;-77
2023/10/19 10:18:50;;;;;;;3.20;3.00;;;;;;;7.92;65.50;99426.66;5020568;27;100061;-77
2023/10/19 10:21:24;;;;;;;3.37;3.17;;;;;;;7.94;65.63;99417.88;5020995;28;96778;-77
2023/10/19 10:24:00;;;;;;;3.20;3.00;;;;;;;7.97;65.65;99431.31;5020926;28;96797;-77
2023/10/19 10:26:30;;;;;;;3.37;3.07;;;;;;;7.99;65.51;99423.25;5019042;28;97149;-77
2023/10/19 10:29:20;;;;;;;3.20;3.00;;;;;;;8.01;65.70;99422.75;5018925;27;100214;-77
2023/10/19 10:31:47;;;;;;;3.40;3.13;;;;;;;7.97;65.42;99428.56;5021492;28;97079;-77
2023/10/19 10:34:34;;;;;;;4.23;3.63;;;;;;;7.98;66.13;99421.03;5020030;28;96989;-78
2023/10/19 10:37:17;;;;;;;3.60;3.23;;;;;;;7.97;65.88;99431.31;5022561;28;97110;-77
2023/10/19 10:39:44;;;;;;;3.40;3.20;;;;;;;7.98;65.44;99454.84;5018767;27;99752;-77
2023/10/19 10:42:10;;;;;;;3.10;2.90;;;;;;;7.96;65.46;99415.31;5019479;27;97997;-77
2023/10/19 10:44:40;;;;;;;3.80;3.30;;;;;;;7.96;65.46;99421.59;5019834;28;97135;-77
2023/10/19 10:47:24;;;;;;;3.23;3.03;;;;;;;7.97;65.78;99412.03;5019111;28;102057;-77
2023/10/19 10:49:54;;;;;;;3.20;3.00;;;;;;;7.94;65.51;99410.34;5021115;28;97195;-77
2023/10/19 10:52:29;;;;;;;3.10;2.90;;;;;;;7.96;65.85;99402.31;5020147;27;97310;-77
2023/10/19 10:54:56;;;;;;;3.57;3.27;;;;;;;7.97;65.72;99403.03;5019160;28;97305;-77
2023/10/19 10:57:23;;;;;;;2.90;2.70;;;;;;;7.96;65.77;99409.81;5018992;28;101448;-78
2023/10/19 11:00:15;;;;;;;3.90;3.60;;;;;;;7.98;65.99;99410.03;5017611;27;97018;-77
2023/10/19 11:02:43;;;;;;;3.30;3.10;;;;;;;8.01;65.72;99404.19;5019744;27;100474;-77
2023/10/19 11:05:13;;;;;;;3.10;2.90;;;;;;;8.05;65.48;99401.91;5016813;28;97920;-77
2023/10/19 11:07:40;;;;;;;3.73;3.43;;;;;;;8.02;65.76;99391.19;5020004;28;97448;-78
2023/10/19 11:10:05;;;;;;;2.93;2.73;;;;;;;7.99;65.71;99395.72;5019353;27;97070;-76
2023/10/19 11:12:32;;;;;;;3.33;3.13;;;;;;;8.01;65.72;99400.72;5019233;28;97442;-77
2023/10/19 11:15:00;;;;;;;3.20;3.00;;;;;;;8.04;65.74;99405.16;5017839;28;96819;-78
2023/10/19 11:17:30;;;;;;;2.90;2.70;;;;;;;7.97;65.54;99397.53;5011061;28;96788;-77
2023/10/19 11:19:56;;;;;;;3.60;3.30;;;;;;;8.07;65.68;99410.38;5035669;27;98888;-78
2023/10/19 11:22:24;;;;;;;4.03;3.50;;;;;;;8.07;65.74;99399.34;5019665;28;96977;-78
2023/10/19 11:24:52;;;;;;;3.50;3.23;;;;;;;8.14;65.82;99398.69;5018165;28;98162;-78
2023/10/19 11:27:27;;;;;;;3.57;3.37;;;;;;;8.19;65.73;99386.13;5020615;27;97147;-77
2023/10/19 11:29:56;;;;;;;3.30;3.10;;;;;;;8.20;65.65;99384.84;5019044;27;97431;-78
2023/10/19 11:32:21;;;;;;;4.50;3.47;;;;;;;8.19;65.73;99389.63;5019300;28;97720;-78
2023/10/19 11:34:48;;;;;;;3.93;3.63;;;;;;;8.18;65.72;99388.16;5014778;27;96980;-78
2023/10/19 11:37:13;;;;;;;3.97;3.47;;;;;;;8.16;65.68;99387.91;5016710;28;97160;-78
2023/10/19 11:39:39;;;;;;;3.47;3.27;;;;;;;8.14;65.83;99373.91;5019129;28;99439;-78
2023/10/19 11:42:04;;;;;;;4.30;3.90;;;;;;;8.16;65.56;99390.66;5016032;27;100102;-78
2023/10/19 11:44:30;;;;;;;3.57;3.27;;;;;;;8.17;65.99;99380.41;5019641;27;98243;-78
2023/10/19 11:46:55;;;;;;;3.97;3.60;;;;;;;8.23;65.66;99378.28;5018043;27;96916;-78
2023/10/19 11:49:20;;;;;;;3.87;3.57;;;;;;;8.20;65.77;99387.63;5018462;27;98421;-77
2023/10/19 11:51:46;;;;;;;4.43;3.77;;;;;;;8.21;65.57;99398.09;5016270;28;100505;-78
2023/10/19 11:54:12;;;;;;;4.13;3.77;;;;;;;8.17;65.78;99372.13;5019155;28;96709;-78
2023/10/19 11:56:38;;;;;;;3.40;3.20;;;;;;;8.18;65.83;99379.13;5019290;28;96928;-77
2023/10/19 11:59:04;;;;;;;3.83;3.50;;;;;;;8.19;65.78;99386.88;5020085;27;97920;-77